Time;durP1;ratioP1;P1;durP2;ratioP2;P2;SDS_P1;SDS_P2;PMS_P1;PMS_P2;Temp;Humidity;BMP_temperature;BMP_pressure;BME280_temperature;BME280_humidity;BME280_pressure;Samples;Min_cycle;Max_cycle;Signal;HPM_P1;HPM_P2
2022/08/04 00:00:04;;;;;;;3.00;2.80;;;;;;;19.60;100.00;97006.56;4968924;28;20209;-65
2022/08/04 00:02:55;;;;;;;3.53;3.23;;;;;;;19.56;100.00;97002.75;4954262;28;20226;-66
2022/08/04 00:05:44;;;;;;;3.27;3.07;;;;;;;19.42;100.00;97002.25;4924408;28;20814;-67
2022/08/04 00:08:23;;;;;;;3.23;3.03;;;;;;;19.40;100.00;97004.38;4965636;28;20265;-65
2022/08/04 00:11:00;;;;;;;3.63;3.40;;;;;;;19.39;100.00;97003.59;4973788;28;20307;-66
2022/08/04 00:13:38;;;;;;;3.93;3.53;;;;;;;19.46;100.00;97001.53;4954296;28;20474;-65
2022/08/04 00:16:30;;;;;;;4.57;3.70;;;;;;;19.51;100.00;97009.66;4963825;28;20209;-67
2022/08/04 00:19:07;;;;;;;3.10;3.00;;;;;;;19.36;100.00;97004.88;4904275;28;21754;-67
2022/08/04 00:21:42;;;;;;;3.07;2.90;;;;;;;19.24;100.00;97006.84;4966655;28;20206;-65
2022/08/04 00:24:16;;;;;;;3.73;3.43;;;;;;;19.31;100.00;97007.47;4965966;28;20753;-67
2022/08/04 00:30:15;;;;;;;3.53;3.33;;;;;;;19.45;100.00;97013.34;4926247;28;20233;-66
2022/08/04 00:32:47;;;;;;;3.27;3.07;;;;;;;19.32;100.00;97011.78;4910569;28;20323;-65
2022/08/04 00:35:18;;;;;;;3.10;2.90;;;;;;;19.23;100.00;97008.69;4880550;28;20346;-68
2022/08/04 00:37:49;;;;;;;3.87;3.57;;;;;;;19.26;100.00;97012.78;4922569;28;20302;-64
2022/08/04 00:40:32;;;;;;;3.77;3.37;;;;;;;19.31;100.00;97010.16;4926789;28;20689;-67
2022/08/04 00:43:23;;;;;;;3.93;3.53;;;;;;;19.29;100.00;97012.28;4897993;28;20929;-68
2022/08/04 00:46:45;;;;;;;3.40;3.10;;;;;;;19.27;100.00;97016.25;4930657;28;20281;-68
2022/08/04 00:49:39;;;;;;;3.63;3.33;;;;;;;19.14;100.00;97010.16;4908349;28;20652;-65
2022/08/04 00:52:22;;;;;;;3.73;3.47;;;;;;;19.06;100.00;97015.94;4882166;28;20346;-66
2022/08/04 00:55:47;;;;;;;4.10;3.70;;;;;;;19.20;100.00;97016.44;4925321;28;20459;-66
2022/08/04 00:58:50;;;;;;;3.50;3.30;;;;;;;19.19;100.00;97020.97;4880703;28;20948;-66
2022/08/04 01:02:01;;;;;;;4.07;3.87;;;;;;;19.29;100.00;97016.81;4923384;28;20222;-64
2022/08/04 01:04:48;;;;;;;4.63;3.63;;;;;;;19.20;100.00;97030.66;4908564;28;20258;-63
2022/08/04 01:07:56;;;;;;;3.90;3.70;;;;;;;19.14;100.00;97022.78;4882337;28;20271;-66
2022/08/04 01:10:55;;;;;;;3.27;3.03;;;;;;;19.08;100.00;97028.06;4861818;28;20222;-66
2022/08/04 01:13:39;;;;;;;3.83;3.47;;;;;;;19.08;100.00;97022.69;4905859;28;20215;-66
2022/08/04 01:16:11;;;;;;;4.07;3.77;;;;;;;18.99;100.00;97013.41;4915006;28;20250;-62
2022/08/04 01:19:02;;;;;;;4.43;3.87;;;;;;;19.03;100.00;97019.91;4910192;28;20235;-66
2022/08/04 01:22:15;;;;;;;5.60;3.63;;;;;;;18.80;100.00;97021.66;4902407;28;20305;-66
2022/08/04 01:25:24;;;;;;;4.03;3.50;;;;;;;18.72;100.00;97018.53;4927482;28;20233;-63
2022/08/04 01:28:34;;;;;;;3.97;3.77;;;;;;;18.84;100.00;97021.97;4941398;28;20233;-63
2022/08/04 01:31:25;;;;;;;4.10;3.80;;;;;;;18.74;100.00;97016.44;4943237;28;20206;-63
2022/08/04 01:34:02;;;;;;;3.60;3.40;;;;;;;18.65;100.00;97019.50;4940784;28;21356;-66
2022/08/04 01:36:36;;;;;;;4.53;4.13;;;;;;;18.58;100.00;97010.78;4965704;28;20201;-63
2022/08/04 01:42:09;;;;;;;3.77;3.17;;;;;;;18.60;100.00;97003.31;4913543;28;20445;-66
2022/08/04 01:45:08;;;;;;;5.07;4.60;;;;;;;18.48;100.00;97003.38;4960721;28;20257;-66
2022/08/04 01:48:11;;;;;;;3.93;3.63;;;;;;;18.72;100.00;97010.50;4944672;28;20233;-68
2022/08/04 01:51:11;;;;;;;6.40;4.10;;;;;;;18.71;100.00;97012.34;4948780;28;20235;-67
2022/08/04 01:54:09;;;;;;;3.37;3.20;;;;;;;18.74;100.00;97011.88;4963487;28;20228;-68
2022/08/04 01:57:08;;;;;;;4.90;4.07;;;;;;;18.69;100.00;97010.97;4914197;28;20221;-66
2022/08/04 02:00:15;;;;;;;5.33;4.83;;;;;;;18.69;100.00;97009.09;4960361;28;20583;-65
2022/08/04 02:03:16;;;;;;;3.57;3.37;;;;;;;18.50;100.00;97014.66;4947711;28;20228;-66
2022/08/04 02:06:22;;;;;;;3.73;3.53;;;;;;;18.39;100.00;97006.66;4946307;28;20243;-65
2022/08/04 02:09:25;;;;;;;4.83;4.00;;;;;;;18.31;100.00;97005.97;4965412;28;20326;-65
2022/08/04 02:12:22;;;;;;;4.20;3.90;;;;;;;18.32;100.00;97010.28;4916454;28;20224;-67
2022/08/04 02:15:23;;;;;;;4.47;4.17;;;;;;;18.24;100.00;97002.63;4961865;28;20595;-68
2022/08/04 02:18:28;;;;;;;3.90;3.70;;;;;;;18.11;100.00;97008.25;4944702;28;20223;-66
2022/08/04 02:21:26;;;;;;;4.87;3.83;;;;;;;18.02;100.00;97003.25;4943179;28;20475;-66
2022/08/04 02:24:22;;;;;;;3.87;3.53;;;;;;;18.14;100.00;97005.09;4965292;28;20248;-68
2022/08/04 02:27:03;;;;;;;4.10;3.90;;;;;;;18.15;100.00;97004.88;4962295;28;20562;-68
2022/08/04 02:29:37;;;;;;;3.90;3.70;;;;;;;18.12;100.00;97005.34;4915103;28;20209;-65
2022/08/04 02:32:19;;;;;;;5.00;3.73;;;;;;;17.99;100.00;96998.34;4962694;28;20324;-67
2022/08/04 02:35:09;;;;;;;4.33;3.93;;;;;;;18.08;100.00;96993.47;4946778;28;20378;-68
2022/08/04 02:37:55;;;;;;;5.33;3.83;;;;;;;18.11;100.00;96998.34;4936020;28;20446;-67
2022/08/04 02:40:43;;;;;;;4.20;3.83;;;;;;;18.04;100.00;96995.00;4960499;28;20217;-66
2022/08/04 02:43:49;;;;;;;4.60;4.30;;;;;;;17.96;100.00;96996.13;4936676;28;20220;-65
2022/08/04 02:46:45;;;;;;;5.00;3.67;;;;;;;18.11;100.00;96997.53;4960973;28;20595;-65
2022/08/04 02:49:44;;;;;;;3.70;3.50;;;;;;;17.90;100.00;96986.38;4960216;28;20221;-66
2022/08/04 02:52:44;;;;;;;4.33;3.93;;;;;;;18.12;100.00;96991.09;4934614;28;20221;-65
2022/08/04 02:55:41;;;;;;;4.60;4.20;;;;;;;18.01;100.00;96992.78;4960223;28;20911;-65
2022/08/04 02:58:29;;;;;;;5.47;5.07;;;;;;;17.96;100.00;96989.94;4962517;28;20269;-66
2022/08/04 03:00:59;;;;;;;4.33;4.03;;;;;;;17.92;100.00;96994.97;4916890;28;20214;-68
2022/08/04 03:03:45;;;;;;;4.03;3.73;;;;;;;17.90;100.00;96989.84;4962655;28;20210;-65
2022/08/04 03:06:50;;;;;;;4.47;4.10;;;;;;;17.82;100.00;96990.22;4947299;28;20229;-67
2022/08/04 03:10:15;;;;;;;4.50;4.10;;;;;;;17.77;100.00;96980.19;4963723;28;20221;-66
2022/08/04 03:13:30;;;;;;;4.97;3.77;;;;;;;17.75;100.00;96989.53;4968928;28;20401;-68
2022/08/04 03:16:35;;;;;;;4.57;4.10;;;;;;;17.67;100.00;96984.53;4921311;28;20229;-68
2022/08/04 03:19:52;;;;;;;4.30;3.90;;;;;;;17.61;100.00;96984.41;4910897;28;20300;-65
2022/08/04 03:23:07;;;;;;;3.73;3.53;;;;;;;17.65;100.00;96988.25;4955731;28;20210;-64
2022/08/04 03:26:26;;;;;;;4.23;3.83;;;;;;;17.60;100.00;96980.09;4961435;28;20238;-68
2022/08/04 03:29:54;;;;;;;4.90;4.50;;;;;;;17.61;100.00;96989.75;4942053;28;20295;-68
2022/08/04 03:33:01;;;;;;;4.43;4.03;;;;;;;17.67;100.00;96989.91;4914899;28;20217;-68
2022/08/04 03:36:31;;;;;;;4.07;3.80;;;;;;;17.63;100.00;96986.84;4966838;28;20295;-64
2022/08/04 03:39:53;;;;;;;4.10;3.90;;;;;;;17.41;100.00;96990.09;4965584;28;20213;-66
2022/08/04 03:43:14;;;;;;;4.80;4.40;;;;;;;17.32;100.00;96989.66;4957611;28;20217;-64
2022/08/04 03:46:39;;;;;;;4.30;4.10;;;;;;;17.21;100.00;96999.31;4969412;28;20232;-64
2022/08/04 03:49:43;;;;;;;4.17;3.97;;;;;;;17.14;100.00;96995.94;4921619;28;20217;-66
2022/08/04 03:55:36;;;;;;;4.60;4.30;;;;;;;17.10;100.00;96996.59;4889036;29;20847;-65
2022/08/04 03:58:55;;;;;;;5.00;4.47;;;;;;;17.03;100.00;96996.72;4889193;29;20595;-65
2022/08/04 04:01:50;;;;;;;4.87;4.10;;;;;;;16.96;100.00;97002.16;4863239;29;20502;-64
2022/08/04 04:04:45;;;;;;;4.30;3.97;;;;;;;16.95;100.00;97000.53;4844181;29;20231;-61
2022/08/04 04:07:42;;;;;;;5.00;4.63;;;;;;;16.88;100.00;97002.50;4887191;29;20243;-67
2022/08/04 04:10:33;;;;;;;4.67;4.27;;;;;;;16.85;100.00;97011.78;4881925;29;20598;-65
2022/08/04 04:13:28;;;;;;;4.97;4.67;;;;;;;16.86;100.00;97007.25;4887289;29;20222;-67
2022/08/04 04:16:14;;;;;;;4.37;4.10;;;;;;;16.92;100.00;97011.69;4863815;29;20478;-68
2022/08/04 04:18:54;;;;;;;4.57;4.37;;;;;;;16.88;100.00;97008.63;4887040;29;20216;-67
2022/08/04 04:21:35;;;;;;;4.10;3.90;;;;;;;16.91;100.00;97004.69;4836018;29;20680;-67
2022/08/04 04:24:33;;;;;;;4.60;4.20;;;;;;;16.78;100.00;97009.19;4888620;29;20757;-68
2022/08/04 04:27:21;;;;;;;4.60;4.30;;;;;;;16.84;100.00;97002.13;4891010;28;20832;-66
2022/08/04 04:30:17;;;;;;;4.57;4.17;;;;;;;16.86;100.00;97007.25;4952193;28;20210;-68
2022/08/04 04:33:17;;;;;;;5.07;4.77;;;;;;;16.80;100.00;97008.97;4946475;28;20544;-67
2022/08/04 04:36:22;;;;;;;4.80;4.40;;;;;;;16.93;100.00;97000.72;4909100;28;20691;-67
2022/08/04 04:39:21;;;;;;;4.50;4.20;;;;;;;16.96;100.00;97001.31;4963721;28;20410;-66
2022/08/04 04:42:37;;;;;;;4.33;4.03;;;;;;;17.07;100.00;97000.59;4967940;28;22143;-67
2022/08/04 04:45:43;;;;;;;4.77;4.57;;;;;;;17.13;100.00;96999.66;4965501;28;20257;-64
2022/08/04 04:48:38;;;;;;;4.70;4.30;;;;;;;17.33;100.00;97006.53;4943074;28;20197;-64
2022/08/04 04:51:49;;;;;;;4.77;4.50;;;;;;;17.45;100.00;97006.53;4940266;28;20726;-61
2022/08/04 04:55:00;;;;;;;5.00;4.70;;;;;;;17.52;100.00;97007.22;4957876;28;20989;-67
2022/08/04 04:58:02;;;;;;;6.40;4.57;;;;;;;17.71;100.00;96999.88;4957047;28;20340;-67
2022/08/04 05:01:30;;;;;;;4.87;4.57;;;;;;;17.90;100.00;97000.56;4959560;28;20431;-66
2022/08/04 05:04:51;;;;;;;4.63;4.33;;;;;;;18.06;100.00;97000.94;4939379;28;20304;-64
2022/08/04 05:08:41;;;;;;;5.07;4.63;;;;;;;18.26;100.00;97010.41;4920809;28;20259;-67
2022/08/04 05:12:22;;;;;;;5.30;4.40;;;;;;;18.40;100.00;97009.13;4963666;28;20216;-65
2022/08/04 05:15:23;;;;;;;9.43;4.47;;;;;;;18.56;100.00;97009.38;4967450;28;20610;-66
2022/08/04 07:00:48;;;;;;;3.83;3.40;;;;;;;24.58;78.25;97010.56;4968891;28;20304;-66
2022/08/04 07:03:39;;;;;;;3.87;3.50;;;;;;;24.75;72.18;97007.53;4922781;28;20218;-65
2022/08/04 07:06:44;;;;;;;7.73;5.27;;;;;;;24.95;75.23;97012.00;4965790;28;20251;-66
2022/08/04 07:09:42;;;;;;;3.97;3.77;;;;;;;25.09;70.87;97011.38;4971973;28;20287;-64
2022/08/04 07:12:45;;;;;;;3.43;3.23;;;;;;;25.25;71.03;97010.16;4954913;28;20223;-66
2022/08/04 07:15:46;;;;;;;5.63;3.60;;;;;;;25.45;70.73;97021.94;4971360;28;20615;-63
2022/08/04 07:18:36;;;;;;;4.07;3.50;;;;;;;25.58;64.42;97020.50;4923490;28;20230;-63
2022/08/04 07:21:39;;;;;;;6.40;4.10;;;;;;;25.60;62.25;97015.59;4966516;28;20201;-63
2022/08/04 07:24:51;;;;;;;8.30;4.83;;;;;;;25.84;64.52;97014.78;4966917;28;20674;-62
2022/08/04 07:28:24;;;;;;;3.93;3.63;;;;;;;26.12;55.04;97015.03;4943578;28;20269;-63
2022/08/04 07:31:58;;;;;;;4.53;3.30;;;;;;;26.24;47.89;97018.16;4932294;28;20673;-63
2022/08/04 07:34:52;;;;;;;4.73;3.30;;;;;;;26.28;49.24;97015.69;4884597;28;20329;-62
2022/08/04 07:38:08;;;;;;;4.47;3.17;;;;;;;26.34;50.68;97011.03;4922792;28;20255;-62
2022/08/04 07:41:17;;;;;;;10.03;7.80;;;;;;;26.53;50.89;97006.41;4910274;28;20266;-64
2022/08/04 07:44:24;;;;;;;4.33;3.50;;;;;;;26.58;46.73;97014.47;4923031;28;20219;-68
2022/08/04 07:47:26;;;;;;;3.43;3.23;;;;;;;26.49;46.10;97005.38;4919727;28;20242;-65
2022/08/04 07:50:26;;;;;;;7.53;3.37;;;;;;;26.40;45.62;97007.13;4931798;28;20542;-67
2022/08/04 07:53:31;;;;;;;3.03;2.83;;;;;;;26.59;48.26;97002.50;4884065;28;21566;-65
2022/08/04 07:56:33;;;;;;;3.50;3.20;;;;;;;26.70;45.99;96997.75;4931738;28;20261;-66
2022/08/04 07:59:37;;;;;;;3.20;3.10;;;;;;;26.88;45.99;97003.50;4927195;28;20417;-65
2022/08/04 08:02:23;;;;;;;5.40;3.43;;;;;;;26.83;45.51;97003.53;4919057;28;20641;-66
2022/08/04 08:05:13;;;;;;;3.57;3.23;;;;;;;26.67;45.53;97001.06;4926254;28;20322;-65
2022/08/04 08:08:15;;;;;;;3.73;3.37;;;;;;;26.87;44.75;97001.88;4881449;28;20246;-65
2022/08/04 08:11:20;;;;;;;3.50;3.30;;;;;;;26.77;44.51;97007.44;4927831;28;20467;-68
2022/08/04 08:14:19;;;;;;;3.50;3.30;;;;;;;27.01;46.04;97005.47;4929663;28;20473;-67
2022/08/04 08:16:56;;;;;;;3.77;3.43;;;;;;;27.22;45.74;96996.19;4912593;28;20460;-64
2022/08/04 08:19:24;;;;;;;3.57;3.23;;;;;;;27.33;45.46;96992.19;4931959;28;20541;-68
2022/08/04 08:21:54;;;;;;;3.53;3.00;;;;;;;27.27;45.47;96987.94;4923879;28;20745;-63
2022/08/04 08:24:28;;;;;;;3.53;3.23;;;;;;;27.48;43.30;96988.38;4887364;28;20320;-66
2022/08/04 08:26:59;;;;;;;3.10;3.00;;;;;;;27.60;43.02;96987.94;4927691;28;20533;-64
2022/08/04 08:29:30;;;;;;;3.87;3.50;;;;;;;27.55;44.18;96990.75;4940404;28;20234;-66
2022/08/04 08:32:00;;;;;;;7.10;2.90;;;;;;;27.69;44.95;96990.78;4941432;28;20229;-67
2022/08/04 08:34:47;;;;;;;4.83;2.83;;;;;;;27.66;42.04;96992.19;4961490;28;20567;-68
2022/08/04 08:37:21;;;;;;;3.40;3.20;;;;;;;27.78;40.55;96988.97;4961946;28;20207;-65
2022/08/04 08:39:58;;;;;;;3.40;3.20;;;;;;;27.79;41.23;96982.41;4923410;28;20236;-67
2022/08/04 08:43:05;;;;;;;5.70;2.97;;;;;;;27.90;40.47;96983.03;4961690;28;20656;-66
2022/08/04 08:46:14;;;;;;;3.20;3.00;;;;;;;28.02;40.93;96990.69;4934761;28;20734;-66
2022/08/04 08:49:05;;;;;;;4.37;3.20;;;;;;;28.19;42.34;96995.53;4949869;28;20227;-65
2022/08/04 08:51:52;;;;;;;3.17;2.90;;;;;;;28.16;40.20;96985.25;4968161;28;20407;-67
2022/08/04 08:54:33;;;;;;;3.77;3.20;;;;;;;28.28;41.36;96991.00;4967287;28;20232;-62
2022/08/04 08:57:15;;;;;;;3.33;3.10;;;;;;;28.36;40.55;96989.47;4918125;28;20616;-62
2022/08/04 08:59:57;;;;;;;3.60;3.20;;;;;;;28.56;40.14;96990.94;4964676;28;20728;-64
2022/08/04 09:02:50;;;;;;;3.33;3.13;;;;;;;28.51;39.68;96984.81;4943184;28;20534;-64
2022/08/04 09:05:57;;;;;;;3.13;2.83;;;;;;;28.57;38.86;96984.38;4960507;28;20319;-65
2022/08/04 09:08:45;;;;;;;4.80;2.77;;;;;;;28.67;38.94;96986.06;4963802;28;20909;-64
2022/08/04 09:11:20;;;;;;;2.93;2.83;;;;;;;28.65;38.83;96980.13;4920977;28;20223;-64
2022/08/04 09:13:55;;;;;;;3.23;2.93;;;;;;;28.79;39.51;96982.84;4967221;28;20260;-66
2022/08/04 09:16:40;;;;;;;3.17;2.97;;;;;;;28.90;38.54;96975.25;4965626;28;20305;-63
2022/08/04 09:19:26;;;;;;;2.67;2.47;;;;;;;29.12;39.52;96974.44;4952407;28;20233;-62
2022/08/04 09:22:14;;;;;;;2.80;2.70;;;;;;;29.16;38.36;96985.50;4965152;28;20208;-65
2022/08/04 09:24:51;;;;;;;2.77;2.67;;;;;;;29.13;38.22;96978.78;4962396;28;20325;-65
2022/08/04 09:27:27;;;;;;;3.13;2.67;;;;;;;29.15;38.54;96978.44;4918860;28;20233;-64
2022/08/04 09:30:04;;;;;;;3.33;2.50;;;;;;;29.17;38.24;96976.25;4966836;28;20678;-66
2022/08/04 09:32:44;;;;;;;4.00;2.83;;;;;;;29.35;39.04;96976.34;4967012;28;20208;-64
2022/08/04 09:35:37;;;;;;;2.67;2.57;;;;;;;29.32;36.72;96980.47;4951479;28;20327;-65
2022/08/04 09:38:25;;;;;;;3.33;3.03;;;;;;;29.38;38.65;96976.53;4969538;28;20581;-64
2022/08/04 09:41:34;;;;;;;3.63;2.93;;;;;;;29.40;36.27;96979.78;4953778;28;20223;-62
2022/08/04 09:44:43;;;;;;;2.50;2.40;;;;;;;29.48;37.81;96975.47;4964237;28;20233;-67
2022/08/04 09:47:36;;;;;;;3.10;2.80;;;;;;;29.50;38.77;96975.16;4948098;28;20699;-65
2022/08/04 09:50:28;;;;;;;2.70;2.60;;;;;;;29.66;37.89;96970.91;4948397;28;20322;-68
2022/08/04 09:53:03;;;;;;;2.60;2.50;;;;;;;29.79;36.62;96973.84;4947273;28;20495;-67
2022/08/04 09:55:44;;;;;;;2.80;2.60;;;;;;;29.65;35.66;96963.81;4968098;28;20224;-67
2022/08/04 09:58:32;;;;;;;3.07;2.87;;;;;;;29.75;36.70;96973.66;4967310;28;20364;-65
2022/08/04 10:01:06;;;;;;;2.83;2.63;;;;;;;29.90;35.21;96967.78;4916831;28;20548;-65
2022/08/04 10:03:40;;;;;;;2.63;2.43;;;;;;;29.89;35.30;96965.38;4961662;28;20301;-65
2022/08/04 10:06:39;;;;;;;2.60;2.50;;;;;;;29.84;36.30;96955.38;4962728;28;20406;-65
2022/08/04 10:09:37;;;;;;;3.20;2.83;;;;;;;29.98;36.28;96954.50;4951431;28;20222;-68
2022/08/04 10:12:31;;;;;;;3.20;2.93;;;;;;;30.12;36.82;96959.88;4945194;28;20332;-63
2022/08/04 10:15:17;;;;;;;2.70;2.60;;;;;;;30.07;35.15;96951.78;4920440;28;25641;-66
2022/08/04 10:18:04;;;;;;;2.37;2.27;;;;;;;30.04;34.84;96942.31;4958903;28;20745;-62
2022/08/04 10:20:55;;;;;;;3.10;2.97;;;;;;;30.13;35.54;96943.13;4966202;28;20213;-65
2022/08/04 10:23:56;;;;;;;2.90;2.80;;;;;;;30.13;35.70;96950.53;4952789;28;20218;-66
2022/08/04 10:26:37;;;;;;;2.57;2.47;;;;;;;30.03;34.00;96943.44;4963984;28;20209;-68
2022/08/04 10:29:15;;;;;;;2.90;2.70;;;;;;;30.18;36.49;96937.53;4955497;28;20295;-65
2022/08/04 10:31:47;;;;;;;3.87;2.70;;;;;;;30.24;35.38;96940.09;4918045;28;20288;-63
2022/08/04 10:34:21;;;;;;;2.77;2.53;;;;;;;30.28;35.37;96932.88;4959798;28;22398;-65
2022/08/04 10:37:04;;;;;;;2.50;2.40;;;;;;;30.40;34.44;96933.06;4964732;28;20699;-62
2022/08/04 10:40:35;;;;;;;2.93;2.67;;;;;;;30.35;33.70;96929.66;4947477;28;20685;-63
2022/08/04 10:42:45;;;;;;;3.27;2.97;;;;;;;30.38;34.43;96926.28;4966838;28;20890;-63
2022/08/04 10:45:24;;;;;;;2.27;2.17;;;;;;;30.52;34.15;96913.28;4961856;28;20226;-66
2022/08/04 10:48:01;;;;;;;2.60;2.47;;;;;;;30.74;32.63;96917.00;4914943;28;20320;-63
2022/08/04 10:50:32;;;;;;;2.73;2.57;;;;;;;30.76;32.49;96912.00;4963520;28;20217;-66
2022/08/04 10:53:04;;;;;;;2.50;2.30;;;;;;;30.73;32.10;96915.41;4961686;28;20861;-65
2022/08/04 10:55:44;;;;;;;2.53;2.33;;;;;;;30.81;31.26;96922.78;4948559;28;20225;-62
2022/08/04 10:58:39;;;;;;;2.10;2.00;;;;;;;30.84;31.95;96913.94;4945979;28;20287;-65
2022/08/04 11:01:21;;;;;;;2.63;2.50;;;;;;;30.87;32.69;96918.75;4964568;28;20316;-66
2022/08/04 11:04:15;;;;;;;2.43;2.33;;;;;;;30.89;32.83;96913.78;4918018;28;20619;-68
2022/08/04 11:06:59;;;;;;;2.40;2.30;;;;;;;31.03;32.05;96921.78;4963707;28;20646;-65
2022/08/04 11:09:28;;;;;;;2.33;2.23;;;;;;;30.95;30.62;96925.34;4962019;28;20234;-67
2022/08/04 11:12:06;;;;;;;3.90;2.40;;;;;;;31.04;30.27;96906.97;4949114;28;20490;-65
2022/08/04 11:14:40;;;;;;;3.23;3.03;;;;;;;31.11;29.23;96917.44;4947865;28;20848;-63
2022/08/04 11:17:14;;;;;;;2.90;2.70;;;;;;;31.11;31.12;96919.38;4960902;28;20455;-67
2022/08/04 11:19:48;;;;;;;2.57;2.47;;;;;;;31.20;30.31;96909.22;4919413;28;20205;-63
2022/08/04 11:22:26;;;;;;;2.50;2.20;;;;;;;31.23;29.65;96913.22;4961329;28;20591;-64
2022/08/04 11:25:09;;;;;;;2.30;2.20;;;;;;;31.25;30.11;96917.25;4959811;28;20940;-66
2022/08/04 11:27:49;;;;;;;2.60;2.47;;;;;;;31.25;30.92;96902.75;4950792;28;20222;-62
2022/08/04 11:30:18;;;;;;;2.77;2.57;;;;;;;31.23;29.68;96905.03;4949857;28;20237;-67
2022/08/04 11:32:58;;;;;;;2.20;2.10;;;;;;;31.35;28.96;96907.91;4969801;28;20225;-64
2022/08/04 11:35:32;;;;;;;2.40;2.30;;;;;;;31.46;28.81;96906.41;4926093;28;20328;-63
2022/08/04 11:38:11;;;;;;;2.23;2.13;;;;;;;31.46;29.42;96903.66;4969304;28;20255;-66
2022/08/04 11:40:43;;;;;;;2.00;1.90;;;;;;;31.62;29.51;96903.09;4966876;28;20640;-62
2022/08/04 11:43:44;;;;;;;2.37;2.27;;;;;;;31.59;28.28;96901.84;4967349;28;20337;-65
2022/08/04 11:46:36;;;;;;;3.23;1.67;;;;;;;31.64;28.83;96900.06;4970638;28;20209;-66
2022/08/04 11:49:12;;;;;;;2.20;2.10;;;;;;;31.73;28.11;96898.88;4970048;28;20439;-65
2022/08/04 11:51:41;;;;;;;2.47;2.27;;;;;;;31.93;28.43;96898.50;4919732;28;20777;-63
2022/08/04 11:54:13;;;;;;;2.30;2.20;;;;;;;31.96;27.79;96893.13;4906120;28;20284;-62
2022/08/04 11:56:48;;;;;;;2.60;2.20;;;;;;;31.94;28.22;96891.88;4963928;28;20691;-66
2022/08/04 11:59:18;;;;;;;1.80;1.70;;;;;;;31.97;26.76;96892.00;4955641;28;20518;-66
2022/08/04 12:01:56;;;;;;;2.37;2.17;;;;;;;32.01;27.40;96892.16;4967557;28;20252;-66
2022/08/04 12:04:31;;;;;;;1.90;1.80;;;;;;;32.03;27.78;96887.94;4968306;28;20626;-66
2022/08/04 12:07:13;;;;;;;1.80;1.67;;;;;;;32.10;26.63;96889.34;4941720;28;20215;-62
2022/08/04 12:10:15;;;;;;;1.93;1.83;;;;;;;32.23;28.49;96892.97;4963451;28;20225;-62
2022/08/04 12:13:24;;;;;;;2.20;2.10;;;;;;;32.40;26.49;96878.38;4965440;28;20627;-63
2022/08/04 12:16:19;;;;;;;1.87;1.70;;;;;;;32.66;27.47;96885.56;4956791;28;20726;-62
2022/08/04 12:19:22;;;;;;;3.83;3.53;;;;;;;32.65;26.21;96889.44;4966175;28;20251;-62
2022/08/04 12:22:19;;;;;;;1.97;1.87;;;;;;;32.83;26.27;96879.91;4964360;28;20205;-66
2022/08/04 12:24:59;;;;;;;2.70;2.00;;;;;;;33.07;27.78;96886.63;4923730;28;20245;-64
2022/08/04 12:27:34;;;;;;;2.50;1.80;;;;;;;33.12;26.77;96886.41;4963011;28;20741;-68
2022/08/04 12:30:05;;;;;;;2.33;2.20;;;;;;;33.01;26.93;96886.06;4964031;28;20797;-61
2022/08/04 12:32:59;;;;;;;3.00;2.20;;;;;;;33.10;25.74;96877.72;4970690;28;20203;-63
2022/08/04 12:35:34;;;;;;;2.70;1.70;;;;;;;33.40;26.77;96882.22;4966557;28;20977;-67
2022/08/04 12:38:08;;;;;;;2.60;1.83;;;;;;;33.50;26.23;96873.56;4963884;28;20304;-63
2022/08/04 12:40:41;;;;;;;2.53;2.33;;;;;;;33.82;26.13;96873.78;4918943;28;20241;-63
2022/08/04 12:43:15;;;;;;;2.00;1.80;;;;;;;35.98;25.07;96876.41;4962259;28;20236;-65
2022/08/04 12:45:45;;;;;;;2.00;1.90;;;;;;;39.43;20.44;96877.91;4970298;28;21074;-66
2022/08/04 12:48:18;;;;;;;2.03;1.93;;;;;;;41.93;17.49;96875.25;4953803;28;20221;-65
2022/08/04 12:50:50;;;;;;;1.80;1.77;;;;;;;45.85;14.74;96872.28;4971182;28;20268;-66
2022/08/04 12:53:23;;;;;;;1.93;1.83;;;;;;;47.07;14.50;96870.19;4964950;28;20239;-64
2022/08/04 12:56:03;;;;;;;2.97;1.77;;;;;;;46.86;14.27;96869.47;4920915;28;20229;-63
2022/08/04 12:58:37;;;;;;;3.60;1.70;;;;;;;47.00;13.13;96873.19;4963002;28;20733;-66
2022/08/04 13:01:13;;;;;;;3.38;2.17;;;;;;;42.26;16.07;96859.28;4947512;28;20207;-62
2022/08/04 13:04:10;;;;;;;2.30;1.98;;;;;;;45.25;14.07;96858.88;4963603;28;20456;-63
2022/08/04 13:06:41;;;;;;;2.27;2.17;;;;;;;46.79;13.68;96864.00;4968116;28;20686;-65
2022/08/04 13:09:14;;;;;;;3.30;1.95;;;;;;;48.21;12.53;96861.31;4965136;28;20710;-63
2022/08/04 13:11:49;;;;;;;3.08;2.95;;;;;;;49.06;11.64;96850.75;4925114;28;20749;-64
2022/08/04 13:14:20;;;;;;;1.60;1.50;;;;;;;49.78;11.45;96856.03;4959087;28;20519;-65
2022/08/04 13:16:59;;;;;;;2.58;2.47;;;;;;;50.22;11.86;96846.09;4968526;28;20214;-63
2022/08/04 13:19:31;;;;;;;1.63;1.63;;;;;;;51.06;11.91;96850.09;4961832;28;20224;-66
2022/08/04 13:22:09;;;;;;;1.73;1.70;;;;;;;51.47;11.85;96852.88;4962165;28;20670;-62
2022/08/04 13:24:40;;;;;;;2.10;2.00;;;;;;;51.86;12.19;96857.28;4970254;28;20352;-66
2022/08/04 13:27:28;;;;;;;1.50;1.50;;;;;;;51.99;10.79;96848.69;4920602;28;23195;-66
2022/08/04 13:30:21;;;;;;;1.98;1.80;;;;;;;52.52;10.84;96851.09;4959102;28;20704;-66
2022/08/04 13:32:54;;;;;;;1.92;1.80;;;;;;;52.71;9.50;96847.44;4968283;28;20216;-66
2022/08/04 13:35:27;;;;;;;1.60;1.60;;;;;;;54.31;10.21;96843.03;4951672;28;20456;-67
2022/08/04 13:38:17;;;;;;;1.52;1.52;;;;;;;54.86;10.10;96838.78;4958614;28;20235;-65
2022/08/04 13:40:47;;;;;;;1.48;1.40;;;;;;;54.01;9.79;96832.50;4965932;28;20255;-65
2022/08/04 13:43:25;;;;;;;1.70;1.60;;;;;;;51.75;10.66;96838.81;4918823;28;20316;-66
2022/08/04 13:46:19;;;;;;;1.83;1.73;;;;;;;52.60;10.49;96836.59;4960505;28;20837;-66
2022/08/04 13:48:57;;;;;;;1.58;1.58;;;;;;;52.21;10.50;96832.31;4961014;28;20211;-63
2022/08/04 13:51:56;;;;;;;1.50;1.40;;;;;;;52.27;10.24;96835.28;4964889;28;20720;-65
2022/08/04 13:54:26;;;;;;;1.95;1.23;;;;;;;52.29;10.44;96837.66;4970810;28;20548;-66
2022/08/04 13:57:07;;;;;;;1.40;1.40;;;;;;;53.34;10.14;96827.00;4967528;28;20238;-63
2022/08/04 13:59:46;;;;;;;1.40;1.40;;;;;;;55.38;9.74;96831.78;4871748;28;21054;-66
2022/08/04 14:02:26;;;;;;;1.50;1.50;;;;;;;53.18;9.16;96826.16;4966248;28;20248;-64
2022/08/04 14:04:56;;;;;;;2.03;1.70;;;;;;;53.09;10.93;96823.38;4965431;28;20766;-66
2022/08/04 14:07:26;;;;;;;1.63;1.52;;;;;;;53.00;10.28;96831.91;4959808;28;20777;-63
2022/08/04 14:09:55;;;;;;;1.83;1.60;;;;;;;52.97;11.15;96827.97;4964456;28;20211;-66
2022/08/04 14:12:35;;;;;;;3.33;1.80;;;;;;;52.42;10.04;96824.13;4962478;28;20237;-63
2022/08/04 14:15:38;;;;;;;1.65;1.65;;;;;;;51.35;10.95;96817.91;4921672;28;20270;-66
2022/08/04 14:18:28;;;;;;;1.60;1.50;;;;;;;52.57;10.37;96814.97;4961373;28;20748;-63
2022/08/04 14:21:07;;;;;;;1.88;1.65;;;;;;;52.89;9.54;96804.94;4963461;28;20598;-65
2022/08/04 14:23:44;;;;;;;2.30;2.17;;;;;;;52.45;10.25;96817.53;4966394;28;20719;-66
2022/08/04 14:26:16;;;;;;;1.65;1.55;;;;;;;52.98;9.62;96804.09;4964712;28;20304;-63
2022/08/04 14:28:45;;;;;;;1.58;1.58;;;;;;;52.90;10.07;96815.00;4963459;28;20213;-66
2022/08/04 14:31:33;;;;;;;1.70;1.60;;;;;;;54.74;9.73;96800.97;4918113;28;20639;-65
2022/08/04 14:34:06;;;;;;;2.20;1.55;;;;;;;55.71;8.22;96802.22;4942653;28;20319;-63
2022/08/04 14:36:45;;;;;;;1.38;1.35;;;;;;;54.89;9.45;96800.13;4963138;28;20209;-66
2022/08/04 14:39:41;;;;;;;1.52;1.45;;;;;;;55.48;9.25;96798.34;4948076;28;20312;-64
2022/08/04 14:42:41;;;;;;;2.60;1.70;;;;;;;53.70;9.09;96796.88;4961998;28;20218;-63
2022/08/04 14:45:10;;;;;;;2.63;1.50;;;;;;;52.45;9.91;96796.94;4964709;28;20233;-66
2022/08/04 14:47:40;;;;;;;1.42;1.33;;;;;;;51.87;10.03;96794.69;4914546;28;20245;-68
2022/08/04 14:50:20;;;;;;;1.90;1.50;;;;;;;54.51;9.46;96794.94;4964895;28;20396;-65
2022/08/04 14:52:48;;;;;;;2.10;1.90;;;;;;;55.71;8.14;96790.88;4965066;28;20434;-67
2022/08/04 14:55:23;;;;;;;1.88;1.33;;;;;;;55.59;8.54;96797.69;4965161;28;20669;-64
2022/08/04 14:57:52;;;;;;;1.80;1.70;;;;;;;50.09;11.87;96781.38;4961920;28;20202;-65
2022/08/04 15:00:45;;;;;;;1.50;1.40;;;;;;;52.08;10.51;96789.34;4915119;28;23199;-66
2022/08/04 15:03:13;;;;;;;1.60;1.60;;;;;;;52.27;9.70;96792.13;4970033;28;20584;-67
2022/08/04 15:05:42;;;;;;;1.50;1.50;;;;;;;51.89;9.83;96782.94;4964105;28;20663;-65